Time;durP1;ratioP1;P1;durP2;ratioP2;P2;SDS_P1;SDS_P2;PMS_P1;PMS_P2;Temp;Humidity;BMP_temperature;BMP_pressure;BME280_temperature;BME280_humidity;BME280_pressure;Samples;Min_cycle;Max_cycle;Signal;HPM_P1;HPM_P2
2020/12/03 00:01:19;;;;;;;32.20;16.85;;;;;;;1.87;74.70;98499.94;5094480;28;20048;-66
2020/12/03 00:03:49;;;;;;;30.23;15.73;;;;;;;1.88;74.88;98496.41;5094959;28;20052;-66
2020/12/03 00:06:18;;;;;;;29.92;16.58;;;;;;;1.91;74.71;98489.06;5093422;28;20528;-67
2020/12/03 00:08:50;;;;;;;29.58;17.38;;;;;;;1.88;74.71;98481.56;5093225;28;20047;-66
2020/12/03 00:11:17;;;;;;;33.53;17.65;;;;;;;1.91;74.58;98483.88;5094349;28;20067;-67
2020/12/03 00:13:44;;;;;;;31.40;18.02;;;;;;;1.98;74.65;98481.50;5094164;28;20051;-67
2020/12/03 00:16:11;;;;;;;31.10;17.17;;;;;;;1.95;74.61;98482.59;5094133;28;20044;-66
2020/12/03 00:18:39;;;;;;;31.63;17.42;;;;;;;2.02;74.46;98469.00;5093702;28;20047;-66
2020/12/03 00:21:08;;;;;;;37.65;19.55;;;;;;;1.96;74.46;98471.25;5094220;28;20444;-67
2020/12/03 00:23:36;;;;;;;34.83;20.08;;;;;;;1.91;74.44;98467.41;5094034;28;20044;-66
2020/12/03 00:26:04;;;;;;;32.03;17.75;;;;;;;1.93;74.47;98465.50;5094242;28;20048;-67
2020/12/03 00:28:32;;;;;;;35.13;18.55;;;;;;;2.00;74.46;98463.94;5093980;28;20493;-66
2020/12/03 00:30:59;;;;;;;30.58;18.05;;;;;;;1.98;74.35;98466.69;5092782;28;20044;-66
2020/12/03 00:33:26;;;;;;;35.13;18.73;;;;;;;1.94;74.17;98462.72;5095524;28;20047;-66
2020/12/03 00:35:54;;;;;;;37.50;19.05;;;;;;;1.94;74.25;98464.50;5098945;28;20078;-66
2020/12/03 00:38:23;;;;;;;33.00;18.20;;;;;;;1.91;74.30;98451.78;5098595;28;20048;-66
2020/12/03 00:40:50;;;;;;;34.03;18.13;;;;;;;1.94;74.22;98449.69;5094651;28;20059;-66
2020/12/03 00:43:18;;;;;;;30.52;17.55;;;;;;;1.95;74.17;98447.91;5093737;28;20115;-66
2020/12/03 00:45:47;;;;;;;35.50;19.35;;;;;;;1.89;74.38;98438.88;5092472;28;20055;-66
2020/12/03 00:48:14;;;;;;;35.97;19.90;;;;;;;1.80;74.29;98428.53;5092008;28;20054;-67
2020/12/03 00:50:41;;;;;;;34.45;18.67;;;;;;;1.84;74.42;98422.06;5093583;28;20044;-66
2020/12/03 00:53:09;;;;;;;35.63;19.35;;;;;;;1.86;74.32;98420.13;5093438;28;20040;-66
2020/12/03 00:55:37;;;;;;;29.25;17.08;;;;;;;1.91;74.39;98423.91;5092106;28;20517;-66
2020/12/03 00:58:06;;;;;;;36.35;19.83;;;;;;;1.85;74.19;98418.47;5091551;28;20460;-67
2020/12/03 01:00:34;;;;;;;33.72;18.67;;;;;;;1.90;74.31;98424.88;5093343;28;20048;-66
2020/12/03 01:03:01;;;;;;;29.25;17.63;;;;;;;1.90;74.24;98411.03;5093580;28;20040;-67
2020/12/03 01:05:27;;;;;;;28.75;18.13;;;;;;;1.88;74.23;98410.38;5093061;28;20048;-66
2020/12/03 01:07:54;;;;;;;31.30;17.45;;;;;;;1.90;74.20;98400.59;5092962;28;20050;-67
2020/12/03 01:10:25;;;;;;;29.05;17.63;;;;;;;1.91;74.37;98403.06;5092890;28;20043;-66
2020/12/03 01:12:51;;;;;;;30.35;18.08;;;;;;;1.89;74.05;98410.22;5092980;28;20517;-66
2020/12/03 01:15:19;;;;;;;32.05;18.38;;;;;;;1.91;74.12;98404.84;5092886;28;20040;-67
2020/12/03 01:17:48;;;;;;;31.48;19.08;;;;;;;1.89;74.04;98398.97;5091562;28;20480;-67
2020/12/03 01:20:20;;;;;;;31.02;18.23;;;;;;;1.90;74.06;98388.38;5092210;28;20044;-67
2020/12/03 01:22:47;;;;;;;31.67;18.00;;;;;;;1.90;74.16;98382.34;5091723;28;20040;-67
2020/12/03 01:25:17;;;;;;;31.38;18.15;;;;;;;1.86;74.33;98379.22;5093039;28;20067;-67
2020/12/03 01:27:45;;;;;;;28.40;17.60;;;;;;;1.89;74.22;98368.50;5092547;28;20243;-67
2020/12/03 01:30:13;;;;;;;29.13;18.10;;;;;;;1.89;74.05;98365.09;5091447;28;20055;-67
2020/12/03 01:32:40;;;;;;;29.88;18.15;;;;;;;1.92;74.25;98373.44;5092692;28;20054;-67
2020/12/03 01:35:09;;;;;;;28.60;17.02;;;;;;;1.92;74.14;98365.63;5091319;28;20429;-67
2020/12/03 01:37:36;;;;;;;29.20;17.88;;;;;;;1.96;74.17;98363.53;5092433;28;20040;-67
2020/12/03 01:40:04;;;;;;;34.70;19.60;;;;;;;1.93;74.17;98362.03;5092581;28;20513;-68
2020/12/03 01:42:31;;;;;;;31.52;18.85;;;;;;;1.92;74.12;98359.59;5091061;28;20059;-67
2020/12/03 01:44:59;;;;;;;29.45;18.33;;;;;;;1.96;74.05;98350.50;5092457;28;20048;-67
2020/12/03 01:47:31;;;;;;;27.38;16.63;;;;;;;1.97;73.92;98345.13;5091157;28;20039;-67
2020/12/03 01:49:58;;;;;;;28.67;16.77;;;;;;;1.99;73.97;98347.56;5092436;28;20062;-67
2020/12/03 01:52:25;;;;;;;24.95;15.70;;;;;;;1.97;74.08;98339.09;5092259;28;20051;-67
2020/12/03 01:54:52;;;;;;;28.90;15.15;;;;;;;1.95;73.95;98334.00;5092236;28;20409;-67
2020/12/03 01:57:51;;;;;;;26.38;14.90;;;;;;;1.92;73.93;98339.56;5090896;28;20048;-66
2020/12/03 02:00:20;;;;;;;27.13;16.05;;;;;;;1.93;73.98;98335.97;5092490;28;20040;-66
2020/12/03 02:02:49;;;;;;;30.30;16.77;;;;;;;1.98;74.00;98330.31;5092161;28;20290;-67
2020/12/03 02:05:19;;;;;;;29.75;16.10;;;;;;;1.94;73.95;98329.78;5092156;28;20034;-67
2020/12/03 02:07:45;;;;;;;30.17;17.02;;;;;;;1.99;74.25;98318.91;5091790;28;20052;-67
2020/12/03 02:10:14;;;;;;;27.60;16.45;;;;;;;2.04;74.20;98315.84;5090639;28;20502;-67
2020/12/03 02:12:41;;;;;;;27.13;15.95;;;;;;;2.06;73.82;98306.09;5092154;28;20036;-67
2020/12/03 02:15:09;;;;;;;26.45;16.10;;;;;;;2.05;73.82;98302.66;5091916;28;20036;-67
2020/12/03 02:17:37;;;;;;;27.55;16.63;;;;;;;2.02;73.84;98302.16;5091682;28;20036;-67
2020/12/03 02:20:09;;;;;;;30.10;17.05;;;;;;;2.02;73.85;98289.94;5092202;28;20040;-66
2020/12/03 02:22:35;;;;;;;28.02;16.35;;;;;;;2.00;73.94;98284.06;5090542;28;20060;-67
2020/12/03 02:25:03;;;;;;;27.27;16.63;;;;;;;2.01;73.67;98287.47;5090629;28;20044;-67
2020/12/03 02:27:30;;;;;;;29.70;16.80;;;;;;;1.98;73.90;98281.59;5090467;28;20047;-67
2020/12/03 02:29:57;;;;;;;27.63;17.17;;;;;;;2.01;74.00;98272.66;5091967;28;20058;-67
2020/12/03 02:32:23;;;;;;;30.38;16.80;;;;;;;2.00;73.95;98271.03;5092141;28;20064;-67
2020/12/03 02:34:50;;;;;;;29.52;17.42;;;;;;;1.94;73.66;98269.00;5095986;28;20066;-67
2020/12/03 02:37:18;;;;;;;25.77;16.60;;;;;;;1.96;73.87;98261.88;5095824;28;20044;-67
2020/12/03 02:39:45;;;;;;;23.75;14.55;;;;;;;1.95;73.94;98263.63;5101562;28;20105;-67
2020/12/03 02:42:14;;;;;;;25.17;16.10;;;;;;;1.95;73.88;98260.22;5102949;28;20048;-66
2020/12/03 02:44:43;;;;;;;25.27;16.23;;;;;;;1.95;73.82;98255.81;5094755;28;20143;-67
2020/12/03 02:47:11;;;;;;;24.08;14.85;;;;;;;1.94;73.76;98255.97;5095584;28;20212;-67
2020/12/03 02:49:41;;;;;;;27.08;16.58;;;;;;;1.99;73.96;98248.50;5095547;28;20036;-67
2020/12/03 02:52:09;;;;;;;27.17;15.80;;;;;;;2.02;73.81;98248.22;5095545;28;20436;-66
2020/12/03 02:54:37;;;;;;;26.55;16.70;;;;;;;2.03;73.66;98243.81;5094228;28;20048;-67
2020/12/03 02:57:04;;;;;;;26.02;16.55;;;;;;;2.09;73.79;98238.81;5095266;28;20052;-67
2020/12/03 02:59:31;;;;;;;25.33;16.50;;;;;;;2.09;73.62;98240.63;5095396;28;20070;-67
2020/12/03 03:01:58;;;;;;;24.10;15.70;;;;;;;2.06;73.61;98233.91;5095446;28;20058;-67
2020/12/03 03:04:25;;;;;;;24.50;15.68;;;;;;;2.07;73.57;98226.91;5095353;28;20044;-68
2020/12/03 03:06:51;;;;;;;25.90;15.80;;;;;;;2.14;73.68;98214.88;5095293;28;20066;-68
2020/12/03 03:09:19;;;;;;;27.30;16.88;;;;;;;2.16;73.42;98216.38;5095566;28;20504;-67
2020/12/03 03:11:47;;;;;;;27.17;17.58;;;;;;;2.11;73.65;98215.19;5095228;28;20509;-67
2020/12/03 03:14:13;;;;;;;26.95;17.35;;;;;;;2.03;73.67;98230.78;5095118;28;20040;-67
2020/12/03 03:16:40;;;;;;;25.30;16.60;;;;;;;2.08;73.55;98224.16;5095010;28;20043;-67
2020/12/03 03:19:07;;;;;;;26.13;16.92;;;;;;;2.10;73.43;98216.16;5094727;28;20051;-67
2020/12/03 03:21:35;;;;;;;24.65;15.80;;;;;;;2.13;73.54;98221.09;5094967;28;20132;-66
2020/12/03 03:24:02;;;;;;;26.95;17.65;;;;;;;2.15;73.48;98219.94;5094980;28;20048;-67
2020/12/03 03:26:28;;;;;;;26.52;16.65;;;;;;;2.23;73.50;98219.19;5095161;28;20040;-64
2020/12/03 03:28:56;;;;;;;24.45;16.27;;;;;;;2.24;73.41;98218.19;5094580;28;20066;-67
2020/12/03 03:31:23;;;;;;;25.90;16.23;;;;;;;2.26;73.29;98218.88;5094907;28;20039;-66
2020/12/03 03:33:49;;;;;;;29.58;17.15;;;;;;;2.34;73.15;98213.72;5094785;28;20044;-66
2020/12/03 03:36:17;;;;;;;25.92;16.77;;;;;;;2.32;73.00;98220.84;5094835;28;20048;-66
2020/12/03 03:38:44;;;;;;;23.48;15.23;;;;;;;2.27;73.27;98215.28;5094427;28;20075;-66
2020/12/03 03:41:11;;;;;;;27.48;16.60;;;;;;;2.31;73.25;98214.00;5094579;28;20055;-66
2020/12/03 03:43:38;;;;;;;25.23;16.40;;;;;;;2.33;73.30;98214.69;5093489;28;20528;-67
2020/12/03 03:46:05;;;;;;;27.08;17.38;;;;;;;2.37;73.33;98205.56;5094554;28;20414;-66
2020/12/03 03:48:32;;;;;;;27.98;17.35;;;;;;;2.39;73.15;98206.22;5094202;28;20104;-66
2020/12/03 03:50:59;;;;;;;27.40;16.20;;;;;;;2.41;73.00;98203.47;5094437;28;20040;-66
2020/12/03 03:53:26;;;;;;;26.42;16.75;;;;;;;2.48;73.08;98197.47;5094368;28;20482;-66
2020/12/03 03:55:52;;;;;;;24.77;16.30;;;;;;;2.48;72.98;98197.47;5094601;28;20040;-66
2020/12/03 03:58:19;;;;;;;25.30;16.67;;;;;;;2.47;72.68;98201.06;5094000;28;20051;-66
2020/12/03 04:00:47;;;;;;;25.80;17.30;;;;;;;2.42;72.44;98199.91;5094571;28;20550;-65
2020/12/03 04:03:18;;;;;;;27.67;17.92;;;;;;;2.32;72.96;98191.34;5094271;28;20055;-66
2020/12/03 04:05:47;;;;;;;28.58;17.80;;;;;;;2.31;73.02;98193.13;5094329;28;20047;-65
2020/12/03 04:08:15;;;;;;;23.98;16.48;;;;;;;2.33;73.10;98190.41;5093923;28;20040;-66
2020/12/03 04:10:42;;;;;;;28.48;17.80;;;;;;;2.33;73.17;98191.22;5094500;28;20040;-66
2020/12/03 04:13:10;;;;;;;25.80;16.70;;;;;;;2.33;73.03;98187.78;5094179;28;20051;-65
2020/12/03 04:15:36;;;;;;;26.83;17.77;;;;;;;2.27;72.96;98184.00;5094122;28;20040;-66
2020/12/03 04:18:04;;;;;;;27.73;16.92;;;;;;;2.18;73.14;98195.34;5093952;28;20047;-66
2020/12/03 04:20:31;;;;;;;31.05;19.60;;;;;;;2.14;73.25;98192.22;5093004;28;20090;-66
2020/12/03 04:22:58;;;;;;;27.58;17.63;;;;;;;2.21;73.43;98197.66;5094196;28;20189;-66
2020/12/03 04:25:25;;;;;;;29.50;17.38;;;;;;;2.17;73.39;98194.53;5093982;28;20048;-66
2020/12/03 04:27:51;;;;;;;25.98;16.92;;;;;;;2.13;73.23;98187.19;5092294;28;20070;-66
2020/12/03 04:30:18;;;;;;;27.70;17.27;;;;;;;2.10;73.33;98185.69;5093813;28;20044;-65
2020/12/03 04:32:45;;;;;;;27.92;17.85;;;;;;;2.13;73.45;98180.19;5092465;28;20082;-66
2020/12/03 04:35:12;;;;;;;33.80;18.40;;;;;;;2.10;73.37;98175.25;5093585;28;20444;-66
2020/12/03 04:37:40;;;;;;;29.02;18.73;;;;;;;2.10;73.51;98170.03;5093332;28;20482;-66
2020/12/03 04:40:08;;;;;;;29.10;18.27;;;;;;;2.05;73.60;98179.31;5093412;28;20044;-66
2020/12/03 04:42:36;;;;;;;29.98;18.42;;;;;;;2.11;73.65;98168.25;5093591;28;20040;-66
2020/12/03 04:45:18;;;;;;;29.02;18.50;;;;;;;2.10;73.80;98161.41;5092336;28;20041;-66
2020/12/03 04:48:01;;;;;;;26.70;17.23;;;;;;;2.07;73.83;98167.75;5093563;28;20094;-66
2020/12/03 04:50:40;;;;;;;27.38;17.90;;;;;;;2.13;73.57;98155.91;5093342;28;20040;-66
2020/12/03 04:53:20;;;;;;;28.70;19.65;;;;;;;2.15;73.49;98152.16;5092507;28;20044;-66
2020/12/03 04:55:56;;;;;;;30.52;18.83;;;;;;;2.18;73.68;98145.81;5092922;28;20040;-68
2020/12/03 04:58:45;;;;;;;27.92;18.23;;;;;;;2.21;73.71;98142.91;5092920;28;20062;-66
2020/12/03 05:01:32;;;;;;;37.25;23.52;;;;;;;2.33;73.61;98140.84;5093140;28;20432;-66
2020/12/03 05:04:05;;;;;;;31.17;18.70;;;;;;;2.36;73.26;98135.28;5093159;28;20044;-67
2020/12/03 05:06:54;;;;;;;30.75;18.85;;;;;;;2.37;73.23;98136.94;5093093;28;20498;-67
2020/12/03 05:09:27;;;;;;;28.58;17.88;;;;;;;2.34;73.21;98130.25;5094667;28;20571;-67
2020/12/03 05:11:58;;;;;;;25.08;17.42;;;;;;;2.30;73.06;98135.94;5097159;28;20181;-67
2020/12/03 05:14:35;;;;;;;27.50;18.25;;;;;;;2.25;73.25;98122.53;5095124;28;20044;-67
2020/12/03 05:17:17;;;;;;;30.35;18.80;;;;;;;2.26;73.17;98127.59;5093282;28;20055;-67
2020/12/03 05:19:49;;;;;;;27.17;17.38;;;;;;;2.25;73.19;98115.53;5092992;28;20046;-67
2020/12/03 05:22:20;;;;;;;27.88;18.20;;;;;;;2.31;73.25;98119.28;5093254;28;20044;-67
2020/12/03 05:24:49;;;;;;;27.67;18.02;;;;;;;2.19;73.25;98106.53;5093312;28;20123;-66
2020/12/03 05:27:21;;;;;;;27.88;18.90;;;;;;;2.27;73.21;98116.19;5091521;28;20455;-67
2020/12/03 05:30:04;;;;;;;27.17;17.90;;;;;;;2.30;73.04;98107.25;5092876;28;20039;-67
2020/12/03 05:32:31;;;;;;;26.50;17.85;;;;;;;2.28;72.82;98109.97;5092181;28;20071;-67
2020/12/03 05:34:58;;;;;;;23.02;15.38;;;;;;;2.10;72.94;98107.47;5092850;28;20044;-67
2020/12/03 05:37:27;;;;;;;23.95;16.73;;;;;;;2.16;73.15;98100.81;5092685;28;20059;-67
2020/12/03 05:39:57;;;;;;;25.27;16.52;;;;;;;2.17;73.13;98092.03;5092676;28;20067;-66
2020/12/03 05:42:27;;;;;;;24.38;16.20;;;;;;;2.19;73.21;98090.06;5091242;28;20044;-67
2020/12/03 05:44:55;;;;;;;26.35;18.15;;;;;;;2.22;73.09;98098.41;5092477;28;20044;-66
2020/12/03 05:47:27;;;;;;;24.00;16.65;;;;;;;2.06;73.12;98093.13;5092416;28;20048;-67
2020/12/03 05:49:57;;;;;;;24.40;16.73;;;;;;;2.10;73.17;98089.22;5092645;28;20051;-68
2020/12/03 05:52:25;;;;;;;24.42;16.05;;;;;;;2.14;73.28;98092.34;5092469;28;20071;-67
2020/12/03 05:54:59;;;;;;;24.38;16.83;;;;;;;2.19;73.13;98090.06;5090959;28;20048;-67
2020/12/03 05:57:28;;;;;;;22.77;15.50;;;;;;;2.17;73.07;98089.44;5091272;28;20406;-67
2020/12/03 06:00:08;;;;;;;22.52;15.25;;;;;;;2.21;73.10;98091.56;5091063;28;20040;-67
2020/12/03 06:02:43;;;;;;;22.60;15.30;;;;;;;2.22;72.97;98080.16;5092385;28;20056;-67
2020/12/03 06:05:18;;;;;;;24.65;15.85;;;;;;;2.28;73.15;98076.06;5092301;28;20051;-67
2020/12/03 06:07:57;;;;;;;21.65;14.98;;;;;;;2.27;72.84;98068.41;5089894;28;20081;-67
2020/12/03 06:10:38;;;;;;;22.67;15.25;;;;;;;2.31;72.67;98069.75;5090991;28;20043;-68
2020/12/03 06:13:37;;;;;;;24.38;15.73;;;;;;;2.28;72.64;98070.88;5092358;28;20062;-68
2020/12/03 06:16:20;;;;;;;24.20;16.00;;;;;;;2.25;72.66;98073.81;5092418;28;20043;-67
2020/12/03 06:22:28;;;;;;;24.13;16.27;;;;;;;2.21;72.64;98080.31;5091928;28;20119;-67
2020/12/03 06:25:23;;;;;;;21.95;14.85;;;;;;;2.29;72.77;98079.53;5092329;28;20487;-67
2020/12/03 06:28:20;;;;;;;25.10;15.43;;;;;;;2.33;72.79;98071.22;5091773;28;20040;-65
2020/12/03 06:30:51;;;;;;;25.35;15.38;;;;;;;2.30;72.64;98066.31;5092345;28;20040;-67
2020/12/03 06:33:36;;;;;;;21.85;15.38;;;;;;;2.38;72.76;98068.13;5091868;28;20040;-67
2020/12/03 06:36:15;;;;;;;22.10;14.65;;;;;;;2.36;72.67;98063.06;5090767;28;20044;-68
2020/12/03 06:38:55;;;;;;;22.05;14.77;;;;;;;2.31;72.35;98054.91;5090191;28;20048;-67
2020/12/03 06:41:46;;;;;;;23.25;16.02;;;;;;;2.21;72.59;98047.22;5091673;28;20126;-69
2020/12/03 06:44:20;;;;;;;20.73;14.95;;;;;;;2.24;72.78;98046.06;5091836;28;20410;-68
2020/12/03 06:47:16;;;;;;;22.92;14.88;;;;;;;2.31;72.73;98052.28;5092157;28;20044;-67
2020/12/03 06:49:58;;;;;;;22.98;15.40;;;;;;;2.30;72.27;98044.63;5090439;28;20040;-68
2020/12/03 06:52:46;;;;;;;23.27;15.02;;;;;;;2.19;72.60;98045.75;5091941;28;20044;-67
2020/12/03 06:55:30;;;;;;;24.75;15.15;;;;;;;2.19;72.53;98040.53;5092163;28;20051;-67
2020/12/03 06:58:37;;;;;;;25.05;15.77;;;;;;;2.11;72.45;98040.50;5091805;28;20056;-66
2020/12/03 07:01:36;;;;;;;23.90;16.00;;;;;;;2.12;72.78;98026.47;5091622;28;20558;-68
2020/12/03 07:04:45;;;;;;;24.48;14.90;;;;;;;2.23;72.76;98028.81;5091555;28;20044;-67
2020/12/03 07:07:45;;;;;;;24.05;15.60;;;;;;;2.26;72.47;98023.28;5090030;28;20377;-66
2020/12/03 07:10:48;;;;;;;23.40;14.85;;;;;;;2.17;72.37;98014.63;5091494;28;20499;-66
2020/12/03 07:13:50;;;;;;;24.75;15.70;;;;;;;2.16;72.57;98012.16;5091711;28;20497;-66
2020/12/03 07:17:18;;;;;;;20.17;13.95;;;;;;;2.17;72.30;98024.22;5090123;28;20036;-66
2020/12/03 07:20:21;;;;;;;24.02;15.32;;;;;;;2.20;72.07;98021.28;5094739;28;20040;-66
2020/12/03 07:22:55;;;;;;;25.20;16.38;;;;;;;2.18;72.54;98015.44;5093745;28;20059;-67
2020/12/03 07:25:22;;;;;;;;;;;;;;;2.15;72.57;98006.13;5095443;28;20044;-66
2020/12/03 07:28:07;;;;;;;22.98;14.98;;;;;;;2.29;72.63;98004.72;5095010;28;19920;-66
2020/12/03 07:30:42;;;;;;;22.15;14.13;;;;;;;2.29;72.28;97996.88;5094908;28;20044;-65
2020/12/03 07:33:17;;;;;;;22.30;15.02;;;;;;;2.33;72.17;97990.38;5094895;28;20405;-67
2020/12/03 07:35:50;;;;;;;22.42;14.93;;;;;;;2.36;72.65;97984.81;5093545;28;20040;-66
2020/12/03 07:38:32;;;;;;;22.25;15.73;;;;;;;2.39;71.97;97970.66;5094463;28;20048;-65
2020/12/03 07:40:59;;;;;;;27.27;16.58;;;;;;;2.38;72.23;97971.63;5094571;28;20137;-67
2020/12/03 07:43:30;;;;;;;23.15;16.55;;;;;;;2.43;72.39;97966.75;5094850;28;20047;-66
2020/12/03 07:45:57;;;;;;;20.88;15.00;;;;;;;2.49;72.31;97960.88;5093223;28;20059;-66
2020/12/03 07:48:42;;;;;;;23.23;15.70;;;;;;;2.50;72.07;97956.47;5094365;28;20048;-66
2020/12/03 07:51:13;;;;;;;20.83;14.93;;;;;;;2.45;71.61;97954.38;5094568;28;20055;-66
2020/12/03 07:53:41;;;;;;;21.25;15.10;;;;;;;2.36;71.63;97953.50;5094364;28;20044;-66
2020/12/03 07:56:32;;;;;;;20.73;14.90;;;;;;;2.36;71.87;97937.88;5094149;28;20521;-66
2020/12/03 07:59:37;;;;;;;26.45;16.63;;;;;;;2.42;72.04;97920.78;5094302;28;20040;-66
2020/12/03 08:02:27;;;;;;;22.98;15.50;;;;;;;2.50;71.52;97912.13;5090247;28;20060;-66
2020/12/03 08:04:54;;;;;;;24.45;16.30;;;;;;;2.53;71.46;97906.56;5094003;28;20051;-66
2020/12/03 08:07:41;;;;;;;21.10;14.52;;;;;;;2.45;71.66;97896.97;5092574;28;20048;-66
2020/12/03 08:10:36;;;;;;;22.38;14.23;;;;;;;2.48;71.84;97901.84;5094130;28;20050;-66
2020/12/03 08:13:17;;;;;;;23.27;15.77;;;;;;;2.58;71.56;97899.91;5094185;28;20059;-67
2020/12/03 08:15:54;;;;;;;19.73;14.23;;;;;;;2.51;71.67;97914.56;5093930;28;20510;-66
2020/12/03 08:18:46;;;;;;;22.48;14.48;;;;;;;2.48;71.68;97918.31;5093479;28;20515;-66
2020/12/03 08:21:15;;;;;;;21.77;14.05;;;;;;;2.51;71.67;97918.97;5092530;28;20048;-66
2020/12/03 08:23:50;;;;;;;22.65;14.82;;;;;;;2.58;71.55;97909.53;5092543;28;20105;-66
2020/12/03 08:26:28;;;;;;;20.77;13.35;;;;;;;2.51;71.60;97913.75;5092564;28;20052;-67
2020/12/03 08:28:55;;;;;;;18.55;12.80;;;;;;;2.51;71.47;97906.75;5092260;28;20044;-67
2020/12/03 08:31:21;;;;;;;20.98;14.02;;;;;;;2.54;71.46;97905.59;5093016;28;20051;-66
2020/12/03 08:33:52;;;;;;;17.42;12.45;;;;;;;2.60;71.37;97902.34;5093865;28;20405;-66
2020/12/03 08:36:19;;;;;;;22.73;15.35;;;;;;;2.68;71.57;97897.09;5093446;28;20036;-67
2020/12/03 08:38:53;;;;;;;18.08;12.75;;;;;;;2.73;70.99;97900.88;5093309;28;20453;-66
2020/12/03 08:41:24;;;;;;;19.60;14.18;;;;;;;2.83;71.44;97898.06;5093407;28;20387;-67
2020/12/03 08:43:53;;;;;;;20.23;13.63;;;;;;;2.98;70.88;97906.06;5093092;28;20323;-67
2020/12/03 08:46:22;;;;;;;17.75;12.27;;;;;;;2.92;70.50;97906.72;5093227;28;20040;-67
2020/12/03 08:48:49;;;;;;;18.63;12.82;;;;;;;2.89;70.75;97901.81;5092786;28;20044;-67
2020/12/03 08:51:18;;;;;;;20.08;13.85;;;;;;;2.92;70.78;97904.91;5091962;28;20047;-67
2020/12/03 08:53:47;;;;;;;19.52;12.82;;;;;;;2.91;70.55;97900.69;5091854;28;20059;-67
2020/12/03 08:56:38;;;;;;;16.55;11.70;;;;;;;2.89;70.46;97899.19;5093226;28;20039;-66
2020/12/03 08:59:11;;;;;;;16.52;11.70;;;;;;;2.91;70.44;97886.81;5091627;28;20135;-66
2020/12/03 09:01:41;;;;;;;16.58;11.40;;;;;;;2.90;70.31;97893.03;5093247;28;20044;-67
2020/12/03 09:04:09;;;;;;;16.58;11.07;;;;;;;2.91;70.38;97895.44;5092996;28;20044;-66
2020/12/03 09:06:46;;;;;;;15.88;11.35;;;;;;;2.96;70.31;97892.34;5092872;28;20052;-67
2020/12/03 09:09:16;;;;;;;15.00;10.90;;;;;;;3.03;70.40;97895.13;5093017;28;20048;-66
2020/12/03 09:11:44;;;;;;;15.90;10.90;;;;;;;3.14;70.19;97887.75;5093041;28;20036;-66
2020/12/03 09:14:12;;;;;;;15.40;10.32;;;;;;;3.22;69.99;97885.09;5092787;28;20048;-66
2020/12/03 09:16:43;;;;;;;18.05;11.95;;;;;;;3.28;69.92;97888.03;5092626;28;20463;-65
2020/12/03 09:19:09;;;;;;;16.17;10.77;;;;;;;3.30;69.49;97878.19;5092488;28;20490;-65
2020/12/03 09:21:41;;;;;;;15.77;9.98;;;;;;;3.28;69.49;97875.78;5093025;28;20375;-65
2020/12/03 09:24:11;;;;;;;16.48;10.38;;;;;;;3.28;69.44;97859.28;5092926;28;20059;-66
2020/12/03 09:26:41;;;;;;;14.23;9.90;;;;;;;3.38;69.22;97865.91;5092707;28;20409;-65
2020/12/03 09:29:10;;;;;;;14.98;10.70;;;;;;;3.44;69.19;97861.84;5092254;28;20059;-65
2020/12/03 09:31:37;;;;;;;15.52;11.02;;;;;;;3.47;69.05;97859.69;5092515;28;20055;-66
2020/12/03 09:34:06;;;;;;;13.05;8.90;;;;;;;3.53;68.96;97855.56;5092447;28;20044;-65
2020/12/03 09:36:33;;;;;;;15.73;10.25;;;;;;;3.53;68.82;97852.16;5092407;28;20387;-65
2020/12/03 09:39:01;;;;;;;12.95;9.30;;;;;;;3.57;68.33;97850.81;5092189;28;20051;-65
2020/12/03 09:41:30;;;;;;;13.70;9.90;;;;;;;3.55;68.61;97850.16;5090707;28;20136;-66
2020/12/03 09:44:01;;;;;;;16.80;10.75;;;;;;;3.52;68.72;97850.53;5092260;28;20044;-66
2020/12/03 09:46:30;;;;;;;14.23;10.18;;;;;;;3.53;68.57;97854.75;5101488;28;20043;-66
2020/12/03 09:48:57;;;;;;;15.50;9.98;;;;;;;3.38;68.55;97852.84;5105102;28;20252;-65
2020/12/03 09:51:24;;;;;;;13.73;9.15;;;;;;;3.35;68.73;97844.56;5106384;28;20062;-65
2020/12/03 09:53:52;;;;;;;14.65;10.38;;;;;;;3.42;68.53;97841.09;5096804;28;20040;-66
2020/12/03 09:56:20;;;;;;;14.25;9.57;;;;;;;3.44;68.62;97835.69;5094334;28;20047;-65
2020/12/03 09:58:56;;;;;;;13.88;9.70;;;;;;;3.56;68.21;97825.69;5091948;28;20051;-65
2020/12/03 10:01:47;;;;;;;16.60;11.32;;;;;;;3.52;67.82;97819.19;5092637;28;20043;-66
2020/12/03 10:04:41;;;;;;;13.93;9.93;;;;;;;3.56;67.94;97816.03;5091581;28;20058;-65
2020/12/03 10:07:19;;;;;;;17.02;9.40;;;;;;;3.53;67.79;97808.53;5091910;28;20051;-66
2020/12/03 10:10:15;;;;;;;12.95;8.98;;;;;;;3.64;67.81;97794.28;5091990;28;20044;-66
2020/12/03 10:12:54;;;;;;;12.60;9.10;;;;;;;3.79;68.12;97789.09;5092118;28;20052;-65
2020/12/03 10:15:45;;;;;;;13.85;9.13;;;;;;;3.93;67.74;97785.75;5091928;28;20047;-65
2020/12/03 10:18:21;;;;;;;13.25;9.63;;;;;;;4.02;67.08;97781.25;5091853;28;20047;-66
2020/12/03 10:20:50;;;;;;;15.07;9.80;;;;;;;3.87;67.28;97786.41;5092100;28;20063;-66
2020/12/03 10:23:37;;;;;;;14.57;9.63;;;;;;;3.91;67.08;97774.63;5091977;28;20085;-66
2020/12/03 10:26:31;;;;;;;14.63;11.32;;;;;;;3.91;67.20;97764.16;5091886;28;20062;-65
2020/12/03 10:29:16;;;;;;;14.18;8.95;;;;;;;4.05;66.87;97757.38;5090280;28;20048;-65
2020/12/03 10:31:45;;;;;;;13.13;8.77;;;;;;;3.91;66.33;97751.09;5091803;28;20448;-65
2020/12/03 10:34:13;;;;;;;11.45;8.80;;;;;;;3.85;66.85;97731.72;5091952;28;20391;-65
2020/12/03 10:36:50;;;;;;;13.68;9.23;;;;;;;3.91;66.96;97724.94;5091751;28;20028;-65
2020/12/03 10:39:17;;;;;;;17.40;11.25;;;;;;;4.05;66.87;97728.59;5091806;28;20048;-65
2020/12/03 10:41:52;;;;;;;13.15;9.60;;;;;;;4.08;65.77;97707.31;5091599;28;20056;-65
2020/12/03 10:44:25;;;;;;;12.57;9.07;;;;;;;4.04;66.24;97708.66;5090750;28;20044;-65
2020/12/03 10:46:58;;;;;;;12.70;8.25;;;;;;;4.12;66.20;97701.56;5090305;28;20048;-65
2020/12/03 10:49:26;;;;;;;10.52;7.43;;;;;;;4.23;66.07;97698.50;5091788;28;20059;-65
2020/12/03 10:51:59;;;;;;;13.32;8.63;;;;;;;4.29;65.82;97686.50;5091768;28;20036;-65
2020/12/03 10:54:27;;;;;;;12.32;8.88;;;;;;;4.40;65.99;97672.97;5093401;28;20066;-65
2020/12/03 10:56:55;;;;;;;12.48;8.80;;;;;;;4.71;65.55;97667.53;5095445;28;20036;-65
2020/12/03 10:59:33;;;;;;;11.52;8.85;;;;;;;4.93;64.85;97657.09;5095535;28;20502;-65
2020/12/03 11:02:01;;;;;;;12.63;8.98;;;;;;;5.19;64.10;97638.25;5095868;28;20516;-65
2020/12/03 11:04:29;;;;;;;10.27;8.18;;;;;;;5.30;63.62;97636.91;5095761;28;20040;-65
2020/12/03 11:07:07;;;;;;;11.60;8.80;;;;;;;5.37;62.69;97635.19;5094031;28;20054;-66
2020/12/03 11:09:34;;;;;;;11.52;8.35;;;;;;;5.45;63.03;97638.47;5094025;28;20052;-66
2020/12/03 11:12:01;;;;;;;9.80;7.72;;;;;;;5.37;63.08;97622.06;5095303;28;20047;-66
2020/12/03 11:14:31;;;;;;;12.57;9.20;;;;;;;5.46;63.00;97623.56;5095460;28;20510;-66
2020/12/03 11:17:03;;;;;;;10.15;8.13;;;;;;;5.54;62.90;97631.28;5094919;28;20517;-66
2020/12/03 11:19:53;;;;;;;9.88;7.25;;;;;;;5.58;62.62;97629.09;5094904;28;20059;-65
2020/12/03 11:22:44;;;;;;;10.00;7.63;;;;;;;5.64;62.28;97620.50;5093908;28;20431;-64
2020/12/03 11:25:13;;;;;;;11.90;8.63;;;;;;;5.69;62.24;97616.28;5094989;28;20051;-66
2020/12/03 11:27:42;;;;;;;9.38;7.55;;;;;;;5.68;61.92;97609.44;5094702;28;20138;-66
2020/12/03 11:30:17;;;;;;;10.30;7.88;;;;;;;5.68;61.78;97621.75;5094849;28;20047;-66
2020/12/03 11:32:48;;;;;;;11.43;8.20;;;;;;;5.61;62.09;97610.38;5093604;28;20048;-65
2020/12/03 11:35:26;;;;;;;12.23;8.48;;;;;;;5.51;62.69;97613.34;5095114;28;20048;-65
2020/12/03 11:37:54;;;;;;;9.98;8.25;;;;;;;5.57;62.65;97607.34;5094858;28;20054;-65
2020/12/03 11:40:32;;;;;;;12.50;9.00;;;;;;;5.58;62.35;97595.03;5094684;28;20059;-65
2020/12/03 11:43:19;;;;;;;9.63;7.53;;;;;;;5.50;62.33;97588.09;5094679;28;20047;-65
2020/12/03 11:46:11;;;;;;;9.13;6.70;;;;;;;5.34;62.35;97580.53;5094872;28;20044;-65
2020/12/03 11:48:39;;;;;;;11.38;8.55;;;;;;;5.14;62.81;97575.94;5094548;28;20047;-65
2020/12/03 11:51:06;;;;;;;12.63;9.85;;;;;;;5.01;63.11;97567.13;5094762;28;20048;-65
2020/12/03 11:53:33;;;;;;;14.80;8.65;;;;;;;4.92;63.34;97572.50;5093502;28;20528;-66
2020/12/03 11:56:00;;;;;;;11.07;7.82;;;;;;;4.90;63.40;97574.50;5094418;28;20051;-66
2020/12/03 11:58:29;;;;;;;10.65;7.28;;;;;;;4.83;63.64;97562.34;5094150;28;20044;-66